createdAt,value
2019-04-21T00:01:12.740Z,36.90
2019-04-21T00:04:10.192Z,36.90
2019-04-21T00:07:03.002Z,36.60
2019-04-21T00:09:52.295Z,36.50
2019-04-21T00:12:34.492Z,37.10
2019-04-21T00:15:19.401Z,38.20
2019-04-21T00:18:01.081Z,37.10
2019-04-21T00:20:49.803Z,37.10
2019-04-21T00:23:51.491Z,36.80
2019-04-21T00:26:36.509Z,36.70
2019-04-21T00:29:33.096Z,36.80
2019-04-21T00:32:10.453Z,36.30
2019-04-21T00:34:48.432Z,36.80
2019-04-21T00:37:49.365Z,36.90
2019-04-21T00:40:36.547Z,36.70
2019-04-21T00:43:19.781Z,36.90
2019-04-21T00:45:59.990Z,36.60
2019-04-21T00:48:59.237Z,36.90
2019-04-21T00:52:03.816Z,36.60
2019-04-21T00:54:51.413Z,36.50
2019-04-21T00:57:32.519Z,36.60
2019-04-21T01:00:18.594Z,36.50
2019-04-21T01:03:03.201Z,36.90
2019-04-21T01:05:52.854Z,36.70
2019-04-21T01:08:35.669Z,36.50
2019-04-21T01:11:23.953Z,36.10
2019-04-21T01:14:11.739Z,36.60
2019-04-21T01:16:57.397Z,36.60
2019-04-21T01:19:42.248Z,36.80
2019-04-21T01:22:11.942Z,36.60
2019-04-21T01:25:08.005Z,36.50
2019-04-21T01:27:59.002Z,36.60
2019-04-21T01:30:55.338Z,36.40
2019-04-21T01:33:49.034Z,36.60
2019-04-21T01:36:24.543Z,36.40
2019-04-21T01:39:19.628Z,36.50
2019-04-21T01:42:04.959Z,36.50
2019-04-21T01:44:48.401Z,36.80
2019-04-21T01:47:31.471Z,36.60
2019-04-21T01:50:14.391Z,36.00
2019-04-21T01:53:24.326Z,36.30
2019-04-21T01:56:29.265Z,36.40
2019-04-21T01:59:01.296Z,36.50
2019-04-21T02:02:01.687Z,36.50
2019-04-21T02:04:52.235Z,36.00
2019-04-21T02:07:32.651Z,36.40
2019-04-21T02:10:33.256Z,36.40
2019-04-21T02:13:10.294Z,36.60
2019-04-21T02:16:01.072Z,36.50
2019-04-21T02:18:39.334Z,36.40
2019-04-21T02:21:35.253Z,36.20
2019-04-21T02:24:31.347Z,36.10
2019-04-21T02:27:07.623Z,36.10
2019-04-21T02:29:59.817Z,36.30
2019-04-21T02:33:05.576Z,36.40
2019-04-21T02:35:51.020Z,36.40
2019-04-21T02:38:32.162Z,36.30
2019-04-21T02:41:05.885Z,36.40
2019-04-21T02:46:42.032Z,36.30
2019-04-21T02:49:45.321Z,36.50
2019-04-21T02:52:31.694Z,36.70
2019-04-21T02:55:07.810Z,36.60
2019-04-21T02:58:11.207Z,36.60
2019-04-21T03:00:55.517Z,36.70
2019-04-21T03:04:00.688Z,36.60
2019-04-21T03:07:07.206Z,36.70
2019-04-21T03:09:39.153Z,36.60
2019-04-21T03:12:22.100Z,36.60
2019-04-21T03:18:04.873Z,36.40
2019-04-21T03:20:52.966Z,35.90
2019-04-21T03:23:46.757Z,36.50
2019-04-21T03:26:30.534Z,37.20
2019-04-21T03:29:12.202Z,36.50
2019-04-21T03:35:34.018Z,36.40
2019-04-21T03:37:42.452Z,36.50
2019-04-21T03:43:07.912Z,36.40
2019-04-21T03:46:07.220Z,36.60
2019-04-21T03:48:40.691Z,36.50
2019-04-21T03:51:25.826Z,36.40
2019-04-21T03:54:18.593Z,36.40
2019-04-21T03:59:57.715Z,36.70
2019-04-21T04:03:07.661Z,36.60
2019-04-21T04:06:05.386Z,36.60
2019-04-21T04:08:59.222Z,36.50
2019-04-21T04:14:38.788Z,36.50
2019-04-21T04:17:14.531Z,36.50
2019-04-21T04:19:56.393Z,36.70
2019-04-21T04:25:27.997Z,36.60
2019-04-21T04:28:38.471Z,36.50
2019-04-21T04:31:08.071Z,36.50
2019-04-21T04:33:55.475Z,36.50
2019-04-21T04:36:59.254Z,36.50
2019-04-21T04:42:31.545Z,36.70
2019-04-21T04:47:59.712Z,36.50
2019-04-21T04:50:51.526Z,36.70
2019-04-21T04:56:20.588Z,36.60
2019-04-21T04:59:23.290Z,36.70
2019-04-21T05:07:34.167Z,36.90
2019-04-21T05:10:17.901Z,36.90
2019-04-21T05:13:03.769Z,36.90
2019-04-21T05:15:49.998Z,36.90
2019-04-21T05:18:50.422Z,36.90
2019-04-21T05:21:24.816Z,37.00
2019-04-21T05:23:55.783Z,37.00
2019-04-21T05:26:44.367Z,37.00
2019-04-21T05:29:37.801Z,37.00
2019-04-21T05:32:33.172Z,37.00
2019-04-21T05:35:22.452Z,37.10
2019-04-21T05:38:10.618Z,37.20
2019-04-21T05:40:51.236Z,37.00
2019-04-21T05:43:39.160Z,36.90
2019-04-21T05:46:32.041Z,36.30
2019-04-21T05:49:16.095Z,36.30
2019-04-21T05:52:04.082Z,36.30
2019-04-21T05:54:59.578Z,36.30
2019-04-21T05:57:38.147Z,36.40
2019-04-21T06:00:39.067Z,36.30
2019-04-21T06:03:15.125Z,36.10
2019-04-21T06:06:20.273Z,36.00
2019-04-21T06:08:47.814Z,36.00
2019-04-21T06:11:37.815Z,35.90
2019-04-21T06:14:29.358Z,35.90
2019-04-21T06:17:19.238Z,35.90
2019-04-21T06:20:02.849Z,35.90
2019-04-21T06:22:51.990Z,36.00
2019-04-21T06:25:50.010Z,35.90
2019-04-21T06:28:28.317Z,36.20
2019-04-21T06:31:12.660Z,36.00
2019-04-21T06:34:02.088Z,35.90
2019-04-21T06:36:47.518Z,36.00
2019-04-21T06:39:39.754Z,36.10
2019-04-21T06:42:18.423Z,36.00
2019-04-21T06:45:31.817Z,35.80
2019-04-21T06:48:00.356Z,35.30
2019-04-21T06:50:45.766Z,35.00
2019-04-21T06:53:39.671Z,34.50
2019-04-21T06:56:15.193Z,34.20
2019-04-21T06:59:01.427Z,33.80
2019-04-21T07:01:53.680Z,33.50
2019-04-21T07:04:36.502Z,33.00
2019-04-21T07:07:26.290Z,32.70
2019-04-21T07:10:12.377Z,32.50
2019-04-21T07:12:52.809Z,32.60
2019-04-21T07:15:43.661Z,32.20
2019-04-21T07:18:37.184Z,32.10
2019-04-21T07:21:19.713Z,31.90
2019-04-21T07:24:05.366Z,31.90
2019-04-21T07:29:41.356Z,31.80
2019-04-21T07:32:29.046Z,31.90
2019-04-21T07:35:17.161Z,32.00
2019-04-21T07:38:01.198Z,32.80
2019-04-21T07:40:43.103Z,33.30
2019-04-21T07:43:31.564Z,33.50
2019-04-21T07:46:17.324Z,34.20
2019-04-21T07:49:07.872Z,34.20
2019-04-21T07:52:02.919Z,34.30
2019-04-21T07:54:58.925Z,34.40
2019-04-21T07:57:39.426Z,34.40
2019-04-21T08:00:36.795Z,34.40
2019-04-21T08:03:12.842Z,34.40
2019-04-21T08:06:25.337Z,34.50
2019-04-21T08:08:41.030Z,34.60
2019-04-21T08:11:22.509Z,34.30
2019-04-21T08:14:19.481Z,34.50
2019-04-21T08:19:46.173Z,34.70
2019-04-21T08:22:43.224Z,34.60
2019-04-21T08:25:19.497Z,34.70
2019-04-21T08:28:05.928Z,34.40
2019-04-21T08:30:55.345Z,34.50
2019-04-21T08:33:51.413Z,34.60
2019-04-21T08:36:28.482Z,34.70
2019-04-21T08:39:19.539Z,34.40
2019-04-21T08:42:04.002Z,34.70
2019-04-21T08:44:52.657Z,34.90
2019-04-21T08:47:40.217Z,34.80
2019-04-21T08:50:25.613Z,34.90
2019-04-21T08:53:19.755Z,34.00
2019-04-21T08:59:13.859Z,34.40
2019-04-21T09:01:57.292Z,34.90
2019-04-21T09:04:41.219Z,35.10
2019-04-21T09:07:32.132Z,35.30
2019-04-21T09:10:09.367Z,35.30
2019-04-21T09:13:00.112Z,35.20
2019-04-21T09:15:47.976Z,35.20
2019-04-21T09:18:31.373Z,35.30
2019-04-21T09:21:25.546Z,35.70
2019-04-21T09:24:13.361Z,35.80
2019-04-21T09:26:59.331Z,35.90
2019-04-21T09:29:35.823Z,36.30
2019-04-21T09:32:18.249Z,36.70
2019-04-21T09:35:05.072Z,36.00
2019-04-21T09:37:55.295Z,37.10
2019-04-21T09:40:39.856Z,38.40
2019-04-21T09:43:30.789Z,39.30
2019-04-21T09:46:08.980Z,39.40
2019-04-21T09:49:00.848Z,39.70
2019-04-21T09:51:41.714Z,39.30
2019-04-21T09:54:31.293Z,39.80
2019-04-21T09:57:21.962Z,39.70
2019-04-21T10:00:11.896Z,39.50
2019-04-21T10:02:56.784Z,39.00
2019-04-21T10:05:36.142Z,38.70
2019-04-21T10:08:22.814Z,38.00
2019-04-21T10:11:09.767Z,38.50
2019-04-21T10:13:55.629Z,37.80
2019-04-21T10:16:49.983Z,38.00
2019-04-21T10:19:36.264Z,37.70
2019-04-21T10:22:23.233Z,37.30
2019-04-21T10:25:10.269Z,37.40
2019-04-21T10:27:55.352Z,37.50
2019-04-21T10:30:40.793Z,37.40
2019-04-21T10:33:26.290Z,37.20
2019-04-21T10:36:13.012Z,37.20
2019-04-21T10:38:59.547Z,37.20
2019-04-21T10:41:45.818Z,37.10
2019-04-21T10:44:31.519Z,37.20
2019-04-21T10:47:16.849Z,37.80
2019-04-21T10:50:04.634Z,36.90
2019-04-21T10:53:07.052Z,36.90
2019-04-21T10:56:06.096Z,36.20
2019-04-21T10:58:42.508Z,35.80
2019-04-21T11:01:29.231Z,34.40
2019-04-21T11:04:23.115Z,36.10
2019-04-21T11:07:13.535Z,33.30
2019-04-21T11:09:53.901Z,34.10
2019-04-21T11:12:40.978Z,34.10
2019-04-21T11:15:27.505Z,34.20
2019-04-21T11:18:12.615Z,34.20
2019-04-21T11:20:58.678Z,34.20
2019-04-21T11:23:43.981Z,34.70
2019-04-21T11:26:29.866Z,34.50
2019-04-21T11:29:15.019Z,34.10
2019-04-21T11:32:00.971Z,34.40
2019-04-21T11:34:47.197Z,34.40
2019-04-21T11:37:34.572Z,34.50
2019-04-21T11:40:22.120Z,34.60
2019-04-21T11:43:07.925Z,34.20
2019-04-21T11:45:54.703Z,34.10
2019-04-21T11:48:40.081Z,34.30
2019-04-21T11:51:25.166Z,34.20
2019-04-21T11:54:10.857Z,34.30
2019-04-21T11:56:56.993Z,34.10
2019-04-21T11:59:42.083Z,34.20
2019-04-21T12:02:27.640Z,34.10
2019-04-21T12:05:12.691Z,34.00
2019-04-21T12:07:58.650Z,34.20
2019-04-21T12:10:45.675Z,34.00
2019-04-21T12:13:32.182Z,34.00
2019-04-21T12:16:18.981Z,34.20
2019-04-21T12:19:05.156Z,34.10
2019-04-21T12:22:02.860Z,34.00
2019-04-21T12:24:39.676Z,33.80
2019-04-21T12:27:25.684Z,33.60
2019-04-21T12:30:13.565Z,33.50
2019-04-21T12:33:02.107Z,33.50
2019-04-21T12:35:48.178Z,33.30
2019-04-21T12:38:44.654Z,33.50
2019-04-21T12:41:22.721Z,33.10
2019-04-21T12:44:09.125Z,33.10
2019-04-21T12:46:54.293Z,33.10
2019-04-21T12:49:39.847Z,33.20
2019-04-21T12:52:27.369Z,33.20
2019-04-21T12:55:13.535Z,33.40
2019-04-21T12:57:59.424Z,33.30
2019-04-21T13:00:44.984Z,33.20
2019-04-21T13:03:30.407Z,33.10
2019-04-21T13:06:15.927Z,32.80
2019-04-21T13:09:05.252Z,32.60
2019-04-21T13:11:49.001Z,32.60
2019-04-21T13:14:36.080Z,31.80
2019-04-21T13:17:21.517Z,31.40
2019-04-21T13:20:07.329Z,31.20
2019-04-21T13:22:52.695Z,31.80
2019-04-21T13:25:38.163Z,31.40
2019-04-21T13:28:24.831Z,30.70
2019-04-21T13:31:11.824Z,29.00
2019-04-21T13:33:57.915Z,29.40
2019-04-21T13:36:43.609Z,30.60
2019-04-21T13:39:57.219Z,31.00
2019-04-21T13:42:30.145Z,31.00
2019-04-21T13:45:10.202Z,31.10
2019-04-21T13:47:56.733Z,31.30
2019-04-21T13:50:41.593Z,31.40
2019-04-21T13:53:29.055Z,31.50
2019-04-21T13:56:14.443Z,31.40
2019-04-21T13:59:00.106Z,31.50
2019-04-21T14:01:45.722Z,31.60
2019-04-21T14:04:31.489Z,31.40
2019-04-21T14:07:18.432Z,31.50
2019-04-21T14:10:09.939Z,30.50
2019-04-21T14:12:54.255Z,29.30
2019-04-21T14:15:39.944Z,29.40
2019-04-21T14:18:25.264Z,30.00
2019-04-21T14:21:11.376Z,28.50
2019-04-21T14:23:58.146Z,28.80
2019-04-21T14:26:44.567Z,29.50
2019-04-21T14:29:31.227Z,29.50
2019-04-21T14:32:18.157Z,29.90
2019-04-21T14:35:04.906Z,30.40
2019-04-21T14:37:50.721Z,30.80
2019-04-21T14:40:37.353Z,30.60
2019-04-21T14:43:23.707Z,31.00
2019-04-21T14:46:24.925Z,31.10
2019-04-21T14:49:13.105Z,30.90
2019-04-21T14:52:03.484Z,30.90
2019-04-21T14:55:04.740Z,30.80
2019-04-21T14:57:51.588Z,30.70
2019-04-21T15:00:51.007Z,30.40
2019-04-21T15:03:37.633Z,29.70
2019-04-21T15:06:23.179Z,29.70
2019-04-21T15:09:09.231Z,28.80
2019-04-21T15:11:56.026Z,29.00
2019-04-21T15:14:44.146Z,29.30
2019-04-21T15:17:31.742Z,29.20
2019-04-21T15:20:18.207Z,28.60
2019-04-21T15:23:04.245Z,28.30
2019-04-21T15:25:50.255Z,28.90
2019-04-21T15:28:37.220Z,29.30
2019-04-21T15:31:30.575Z,29.00
2019-04-21T15:34:14.711Z,29.00
2019-04-21T15:36:59.873Z,29.00
2019-04-21T15:39:48.802Z,29.20
2019-04-21T15:42:34.706Z,29.50
2019-04-21T15:45:21.000Z,28.60
2019-04-21T15:48:05.978Z,27.60
2019-04-21T15:50:53.069Z,27.90
2019-04-21T15:53:41.635Z,28.10
2019-04-21T15:56:32.973Z,28.90
2019-04-21T15:59:30.568Z,29.30
2019-04-21T16:02:34.828Z,29.30
2019-04-21T16:05:19.730Z,29.40
2019-04-21T16:08:05.905Z,29.10
2019-04-21T16:10:56.507Z,28.10
2019-04-21T16:13:39.659Z,27.90
2019-04-21T16:16:27.302Z,28.30
2019-04-21T16:19:12.418Z,28.40
2019-04-21T16:21:59.051Z,28.20
2019-04-21T16:24:44.358Z,28.60
2019-04-21T16:27:29.971Z,29.50
2019-04-21T16:30:15.624Z,29.40
2019-04-21T16:33:01.944Z,29.70
2019-04-21T16:35:49.552Z,29.50
2019-04-21T16:38:33.674Z,29.20
2019-04-21T16:41:20.324Z,29.20
2019-04-21T16:44:07.114Z,29.30
2019-04-21T16:46:52.158Z,29.10
2019-04-21T16:49:38.049Z,29.30
2019-04-21T16:52:28.096Z,29.20
2019-04-21T16:55:21.670Z,29.20
2019-04-21T16:58:14.575Z,29.10
2019-04-21T17:01:14.876Z,27.90
2019-04-21T17:03:58.317Z,27.90
2019-04-21T17:06:44.941Z,27.30
2019-04-21T17:09:30.709Z,27.10
2019-04-21T17:12:16.503Z,26.90
2019-04-21T17:15:18.922Z,27.40
2019-04-21T17:18:07.606Z,27.30
2019-04-21T17:20:46.738Z,27.30
2019-04-21T17:23:27.216Z,27.10
2019-04-21T17:26:13.198Z,27.70
2019-04-21T17:28:58.741Z,27.50
2019-04-21T17:31:45.425Z,27.10
2019-04-21T17:34:33.486Z,27.70
2019-04-21T17:37:21.539Z,28.00
2019-04-21T17:40:08.765Z,27.90
2019-04-21T17:43:01.624Z,28.00
2019-04-21T17:45:41.345Z,28.00
2019-04-21T17:48:27.148Z,28.50
2019-04-21T17:51:21.402Z,28.40
2019-04-21T17:54:24.796Z,28.10
2019-04-21T17:57:22.781Z,28.50
2019-04-21T18:00:14.193Z,28.70
2019-04-21T18:02:53.778Z,28.90
2019-04-21T18:05:39.384Z,29.00
2019-04-21T18:08:32.515Z,29.00
2019-04-21T18:11:04.835Z,29.20
2019-04-21T18:13:43.855Z,29.80
2019-04-21T18:16:37.276Z,30.00
2019-04-21T18:19:20.573Z,30.30
2019-04-21T18:22:12.834Z,30.50
2019-04-21T18:25:07.027Z,31.00
2019-04-21T18:27:48.755Z,31.20
2019-04-21T18:30:40.308Z,31.80
2019-04-21T18:33:32.028Z,32.10
2019-04-21T18:36:21.876Z,32.30
2019-04-21T18:39:33.838Z,32.40
2019-04-21T18:42:31.256Z,32.80
2019-04-21T18:48:26.707Z,33.00
2019-04-21T18:51:21.938Z,33.20
2019-04-21T18:54:27.294Z,33.30
2019-04-21T18:57:05.389Z,33.50
2019-04-21T18:59:45.176Z,33.50
2019-04-21T19:02:31.747Z,33.60
2019-04-21T19:05:19.177Z,33.70
2019-04-21T19:08:19.067Z,33.80
2019-04-21T19:11:10.393Z,34.00
2019-04-21T19:14:15.405Z,33.80
2019-04-21T19:22:20.391Z,33.20
2019-04-21T19:25:11.258Z,33.50
2019-04-21T19:27:56.985Z,33.70
2019-04-21T19:30:50.094Z,34.00
2019-04-21T19:33:28.507Z,34.00
2019-04-21T19:36:01.438Z,34.10
2019-04-21T19:38:58.615Z,34.00
2019-04-21T19:41:45.848Z,33.70
2019-04-21T19:44:38.278Z,33.80
2019-04-21T19:47:27.912Z,33.80
2019-04-21T19:50:11.800Z,33.80
2019-04-21T19:52:51.996Z,34.60
2019-04-21T19:55:29.756Z,33.60
2019-04-21T19:58:15.053Z,33.50
2019-04-21T20:01:01.500Z,33.50
2019-04-21T20:03:48.634Z,33.30
2019-04-21T20:06:50.322Z,32.80
2019-04-21T20:09:37.832Z,32.40
2019-04-21T20:12:33.290Z,32.20
2019-04-21T20:15:26.020Z,32.20
2019-04-21T20:17:58.749Z,32.10
2019-04-21T20:20:31.045Z,32.10
2019-04-21T20:23:22.876Z,32.00
2019-04-21T20:26:06.363Z,32.00
2019-04-21T20:29:01.082Z,32.00
2019-04-21T20:31:54.601Z,32.10
2019-04-21T20:34:47.697Z,32.10
2019-04-21T20:37:29.640Z,32.00
2019-04-21T20:40:04.494Z,32.10
2019-04-21T20:42:58.561Z,32.10
2019-04-21T20:45:54.332Z,32.10
2019-04-21T20:48:34.440Z,32.10
2019-04-21T20:51:27.388Z,32.50
2019-04-21T20:54:19.127Z,32.20
2019-04-21T20:57:03.233Z,32.20
2019-04-21T20:59:43.826Z,32.30
2019-04-21T21:02:37.157Z,32.30
2019-04-21T21:05:23.355Z,32.40
2019-04-21T21:08:18.027Z,32.40
2019-04-21T21:10:53.743Z,32.40
2019-04-21T21:13:51.001Z,32.60
2019-04-21T21:16:44.935Z,32.60
2019-04-21T21:19:23.476Z,32.70
2019-04-21T21:21:58.768Z,32.50
2019-04-21T21:24:50.563Z,32.30
2019-04-21T21:27:36.722Z,31.90
2019-04-21T21:30:23.203Z,31.80
2019-04-21T21:33:15.246Z,31.50
2019-04-21T21:36:06.618Z,31.40
2019-04-21T21:38:51.839Z,31.80
2019-04-21T21:41:27.790Z,31.20
2019-04-21T21:44:12.724Z,31.20
2019-04-21T21:47:06.462Z,31.30
2019-04-21T21:49:53.997Z,31.20
2019-04-21T21:52:42.507Z,31.10
2019-04-21T21:55:14.034Z,31.00
2019-04-21T21:58:03.587Z,31.00
2019-04-21T22:00:55.413Z,30.80
2019-04-21T22:03:42.708Z,30.80
2019-04-21T22:06:30.786Z,30.90
2019-04-21T22:09:12.566Z,30.90
2019-04-21T22:12:01.353Z,30.70
2019-04-21T22:14:48.426Z,30.60
2019-04-21T22:17:42.858Z,30.50
2019-04-21T22:20:37.327Z,30.50
2019-04-21T22:23:11.337Z,30.70
2019-04-21T22:25:53.552Z,30.70
2019-04-21T22:28:40.003Z,30.30
2019-04-21T22:31:31.906Z,30.30
2019-04-21T22:34:15.752Z,30.50
2019-04-21T22:37:19.142Z,30.70
2019-04-21T22:40:03.641Z,30.80
2019-04-21T22:42:44.935Z,30.80
2019-04-21T22:45:23.176Z,30.70
2019-04-21T22:48:15.579Z,30.60
2019-04-21T22:50:56.205Z,30.70
2019-04-21T22:53:47.239Z,30.40
2019-04-21T22:56:31.990Z,30.30
2019-04-21T22:59:20.545Z,30.50
2019-04-21T23:02:06.361Z,30.40
2019-04-21T23:04:55.875Z,30.40
2019-04-21T23:07:44.198Z,30.40
2019-04-21T23:10:25.437Z,30.40
2019-04-21T23:13:17.780Z,30.40
2019-04-21T23:16:00.891Z,30.40
2019-04-21T23:19:03.433Z,30.30
2019-04-21T23:21:55.375Z,30.40
2019-04-21T23:24:42.098Z,30.50
2019-04-21T23:27:14.154Z,30.40
2019-04-21T23:30:19.839Z,30.30
2019-04-21T23:32:50.781Z,30.30
2019-04-21T23:35:35.205Z,30.50
2019-04-21T23:38:21.520Z,30.50
2019-04-21T23:41:07.485Z,30.50
2019-04-21T23:43:56.314Z,30.40
2019-04-21T23:46:38.740Z,30.40
2019-04-21T23:49:35.365Z,30.40
2019-04-21T23:52:14.437Z,30.40
2019-04-21T23:54:59.065Z,30.40
2019-04-21T23:57:48.405Z,29.90
